createdAt,value
2018-09-18T00:01:41.345Z,17.40
2018-09-18T00:04:10.233Z,17.30
2018-09-18T00:06:39.200Z,17.20
2018-09-18T00:09:09.657Z,17.20
2018-09-18T00:11:38.788Z,17.20
2018-09-18T00:14:07.748Z,17.20
2018-09-18T00:16:36.690Z,17.20
2018-09-18T00:19:05.925Z,17.10
2018-09-18T00:21:34.800Z,17.00
2018-09-18T00:24:07.660Z,16.90
2018-09-18T00:26:36.577Z,17.00
2018-09-18T00:29:07.659Z,17.00
2018-09-18T00:31:37.820Z,17.00
2018-09-18T00:34:07.400Z,17.00
2018-09-18T00:36:36.452Z,17.00
2018-09-18T00:39:08.641Z,16.90
2018-09-18T00:41:37.684Z,17.00
2018-09-18T00:44:07.332Z,17.00
2018-09-18T00:46:36.180Z,16.90
2018-09-18T00:49:07.484Z,16.90
2018-09-18T00:51:36.388Z,16.80
2018-09-18T00:54:08.653Z,16.80
2018-09-18T00:56:37.492Z,16.60
2018-09-18T00:59:08.168Z,16.60
2018-09-18T01:01:37.048Z,16.60
2018-09-18T01:04:05.972Z,16.60
2018-09-18T01:06:34.874Z,16.60
2018-09-18T01:09:04.676Z,16.60
2018-09-18T01:11:33.636Z,16.50
2018-09-18T01:14:02.540Z,16.50
2018-09-18T01:16:31.454Z,16.50
2018-09-18T01:19:00.276Z,16.50
2018-09-18T01:21:29.192Z,16.50
2018-09-18T01:23:58.021Z,16.50
2018-09-18T01:26:27.008Z,16.50
2018-09-18T01:28:55.840Z,16.50
2018-09-18T01:31:24.732Z,16.50
2018-09-18T01:33:53.684Z,16.50
2018-09-18T01:36:22.577Z,16.40
2018-09-18T01:38:51.420Z,16.40
2018-09-18T01:41:20.344Z,16.30
2018-09-18T01:43:49.243Z,16.30
2018-09-18T01:46:18.112Z,16.30
2018-09-18T01:48:46.956Z,16.30
2018-09-18T01:51:15.852Z,16.30
2018-09-18T01:53:44.688Z,16.20
2018-09-18T01:56:13.568Z,16.20
2018-09-18T01:58:42.448Z,16.20
2018-09-18T02:01:11.442Z,16.20
2018-09-18T02:03:40.358Z,16.20
2018-09-18T02:06:09.313Z,16.10
2018-09-18T02:08:38.228Z,16.10
2018-09-18T02:11:07.128Z,16.00
2018-09-18T02:13:35.997Z,16.00
2018-09-18T02:16:04.856Z,15.90
2018-09-18T02:18:33.764Z,15.90
2018-09-18T02:21:02.652Z,15.90
2018-09-18T02:23:31.525Z,15.90
2018-09-18T02:26:00.342Z,15.90
2018-09-18T02:28:29.212Z,15.90
2018-09-18T02:30:58.066Z,15.90
2018-09-18T02:33:26.917Z,15.90
2018-09-18T02:35:55.777Z,15.90
2018-09-18T02:38:24.669Z,15.90
2018-09-18T02:40:53.549Z,15.90
2018-09-18T02:43:22.412Z,15.80
2018-09-18T02:45:51.292Z,15.80
2018-09-18T02:48:20.125Z,15.80
2018-09-18T02:50:49.020Z,15.80
2018-09-18T02:53:17.852Z,15.70
2018-09-18T02:55:46.765Z,15.70
2018-09-18T02:58:15.571Z,15.70
2018-09-18T03:00:44.449Z,15.70
2018-09-18T03:03:13.317Z,15.70
2018-09-18T03:05:42.226Z,15.60
2018-09-18T03:08:11.055Z,15.60
2018-09-18T03:10:39.948Z,15.50
2018-09-18T03:13:08.872Z,15.50
2018-09-18T03:15:37.760Z,15.40
2018-09-18T03:18:06.656Z,15.40
2018-09-18T03:20:35.512Z,15.40
2018-09-18T03:23:04.388Z,15.40
2018-09-18T03:25:33.289Z,15.30
2018-09-18T03:28:02.251Z,15.30
2018-09-18T03:30:31.141Z,15.40
2018-09-18T03:33:00.052Z,15.30
2018-09-18T03:35:28.975Z,15.30
2018-09-18T03:37:57.865Z,15.30
2018-09-18T03:40:26.721Z,15.30
2018-09-18T03:42:55.689Z,15.30
2018-09-18T03:45:24.548Z,15.30
2018-09-18T03:47:53.424Z,15.30
2018-09-18T03:50:22.420Z,15.30
2018-09-18T03:52:51.280Z,15.20
2018-09-18T03:55:20.120Z,15.20
2018-09-18T03:57:49.017Z,15.20
2018-09-18T04:00:17.857Z,15.10
2018-09-18T04:02:46.774Z,15.00
2018-09-18T04:05:15.619Z,15.00
2018-09-18T04:07:44.516Z,15.00
2018-09-18T04:10:13.368Z,14.90
2018-09-18T04:12:42.484Z,14.90
2018-09-18T04:15:11.401Z,14.90
2018-09-18T04:17:40.354Z,14.90
2018-09-18T04:20:09.297Z,14.90
2018-09-18T04:22:38.189Z,15.00
2018-09-18T04:25:07.069Z,15.00
2018-09-18T04:27:35.937Z,14.90
2018-09-18T04:30:04.918Z,14.90
2018-09-18T04:32:33.873Z,14.90
2018-09-18T04:35:02.801Z,14.90
2018-09-18T04:37:31.732Z,14.90
2018-09-18T04:40:00.612Z,14.90
2018-09-18T04:42:29.503Z,14.90
2018-09-18T04:44:58.385Z,14.90
2018-09-18T04:47:27.272Z,14.80
2018-09-18T04:49:56.253Z,14.80
2018-09-18T04:52:25.197Z,14.80
2018-09-18T04:54:54.061Z,14.80
2018-09-18T04:57:23.040Z,14.80
2018-09-18T04:59:51.864Z,14.80
2018-09-18T05:02:20.792Z,14.80
2018-09-18T05:04:49.738Z,15.40
2018-09-18T05:07:18.657Z,15.60
2018-09-18T05:09:47.577Z,15.60
2018-09-18T05:12:16.478Z,15.50
2018-09-18T05:14:45.416Z,15.30
2018-09-18T05:17:14.342Z,15.20
2018-09-18T05:19:43.253Z,15.20
2018-09-18T05:22:12.175Z,15.10
2018-09-18T05:24:41.053Z,15.00
2018-09-18T05:27:10.028Z,15.00
2018-09-18T05:29:38.916Z,15.00
2018-09-18T05:32:07.848Z,15.10
2018-09-18T05:34:36.735Z,15.10
2018-09-18T05:37:05.699Z,15.20
2018-09-18T05:39:34.640Z,15.20
2018-09-18T05:42:03.619Z,15.30
2018-09-18T05:44:32.589Z,15.40
2018-09-18T05:47:01.605Z,15.40
2018-09-18T05:49:31.393Z,15.50
2018-09-18T05:52:01.241Z,15.60
2018-09-18T05:54:30.143Z,15.70
2018-09-18T05:56:59.072Z,15.80
2018-09-18T05:59:28.001Z,15.80
2018-09-18T06:01:56.913Z,15.90
2018-09-18T06:04:25.804Z,15.90
2018-09-18T06:06:54.733Z,16.00
2018-09-18T06:09:23.612Z,16.00
2018-09-18T06:11:52.516Z,16.10
2018-09-18T06:14:21.712Z,16.20
2018-09-18T06:16:50.628Z,16.20
2018-09-18T06:19:19.589Z,16.20
2018-09-18T06:21:48.447Z,16.30
2018-09-18T06:24:17.320Z,16.40
2018-09-18T06:26:46.269Z,16.50
2018-09-18T06:29:15.152Z,16.70
2018-09-18T06:31:44.104Z,16.80
2018-09-18T06:34:12.997Z,16.90
2018-09-18T06:36:41.928Z,17.00
2018-09-18T06:39:11.867Z,17.10
2018-09-18T06:41:41.159Z,17.30
2018-09-18T06:44:10.025Z,17.30
2018-09-18T06:46:38.948Z,17.40
2018-09-18T06:49:07.832Z,17.50
2018-09-18T06:51:36.768Z,17.60
2018-09-18T06:54:05.655Z,17.70
2018-09-18T06:56:34.556Z,17.70
2018-09-18T06:59:03.501Z,17.90
2018-09-18T07:01:32.446Z,17.90
2018-09-18T07:04:01.398Z,18.00
2018-09-18T07:06:30.293Z,18.00
2018-09-18T07:08:59.234Z,18.10
2018-09-18T07:11:28.176Z,18.20
2018-09-18T07:13:57.038Z,18.30
2018-09-18T07:16:25.957Z,18.40
2018-09-18T07:18:54.881Z,18.40
2018-09-18T07:21:23.805Z,18.50
2018-09-18T07:23:52.937Z,18.50
2018-09-18T07:26:21.957Z,18.60
2018-09-18T07:28:50.819Z,18.70
2018-09-18T07:31:19.760Z,18.80
2018-09-18T07:33:48.656Z,18.90
2018-09-18T07:36:17.584Z,19.00
2018-09-18T07:38:46.625Z,19.00
2018-09-18T07:41:15.497Z,19.10
2018-09-18T07:43:44.371Z,19.20
2018-09-18T07:46:13.244Z,19.30
2018-09-18T07:48:42.165Z,19.40
2018-09-18T07:51:11.120Z,19.50
2018-09-18T07:53:40.124Z,19.50
2018-09-18T07:56:08.980Z,19.70
2018-09-18T07:58:40.980Z,19.90
2018-09-18T08:01:12.769Z,20.00
2018-09-18T08:03:45.007Z,20.10
2018-09-18T08:06:16.597Z,20.20
2018-09-18T08:08:48.195Z,20.40
2018-09-18T08:11:19.618Z,20.50
2018-09-18T08:13:51.278Z,20.60
2018-09-18T08:16:23.151Z,20.70
2018-09-18T08:18:54.841Z,20.80
2018-09-18T08:21:27.774Z,20.90
2018-09-18T08:23:59.475Z,21.10
2018-09-18T08:26:31.082Z,21.20
2018-09-18T08:29:02.733Z,21.30
2018-09-18T08:31:46.033Z,21.40
2018-09-18T08:34:17.757Z,21.50
2018-09-18T08:36:48.812Z,21.50
2018-09-18T08:39:17.740Z,21.60
2018-09-18T08:41:59.670Z,21.70
2018-09-18T08:44:38.663Z,21.80
2018-09-18T08:47:11.254Z,21.90
2018-09-18T08:49:41.035Z,22.00
2018-09-18T08:52:10.037Z,22.10
2018-09-18T08:54:39.071Z,22.20
2018-09-18T08:57:10.358Z,22.40
2018-09-18T08:59:39.244Z,22.50
2018-09-18T09:02:08.185Z,22.70
2018-09-18T09:04:37.074Z,22.80
2018-09-18T09:07:08.829Z,22.90
2018-09-18T09:09:38.704Z,23.00
2018-09-18T09:12:08.915Z,23.10
2018-09-18T09:14:38.033Z,23.20
2018-09-18T09:17:07.509Z,23.30
2018-09-18T09:19:36.372Z,23.30
2018-09-18T09:22:05.326Z,23.40
2018-09-18T09:24:34.195Z,23.40
2018-09-18T09:27:03.077Z,23.50
2018-09-18T09:29:32.116Z,23.60
2018-09-18T09:32:01.066Z,23.70
2018-09-18T09:34:29.945Z,23.80
2018-09-18T09:36:58.846Z,23.90
2018-09-18T09:39:27.767Z,24.00
2018-09-18T09:41:56.665Z,24.20
2018-09-18T09:44:25.556Z,24.20
2018-09-18T09:46:54.554Z,24.30
2018-09-18T09:49:23.437Z,24.40
2018-09-18T09:51:52.408Z,24.50
2018-09-18T09:54:21.553Z,24.60
2018-09-18T09:56:50.476Z,24.80
2018-09-18T09:59:19.366Z,25.00
2018-09-18T10:01:55.265Z,25.10
2018-09-18T10:04:24.421Z,25.20
2018-09-18T10:06:53.384Z,25.40
2018-09-18T10:09:22.317Z,25.60
2018-09-18T10:11:51.213Z,25.80
2018-09-18T10:14:20.209Z,25.80
2018-09-18T10:16:49.132Z,25.80
2018-09-18T10:19:18.103Z,25.80
2018-09-18T10:21:46.958Z,25.90
2018-09-18T10:24:15.822Z,26.10
2018-09-18T10:26:44.789Z,26.30
2018-09-18T10:29:13.623Z,26.50
2018-09-18T10:31:42.493Z,26.70
2018-09-18T10:34:11.404Z,26.70
2018-09-18T10:36:40.356Z,26.70
2018-09-18T10:39:10.441Z,26.90
2018-09-18T10:41:39.363Z,26.90
2018-09-18T10:44:08.408Z,27.30
2018-09-18T10:46:37.795Z,27.30
2018-09-18T10:49:06.742Z,27.30
2018-09-18T10:51:36.390Z,27.50
2018-09-18T10:54:05.297Z,27.70
2018-09-18T10:56:34.177Z,27.80
2018-09-18T10:59:03.389Z,27.80
2018-09-18T11:01:32.472Z,27.70
2018-09-18T11:04:01.428Z,27.70
2018-09-18T11:06:30.317Z,27.70
2018-09-18T11:08:59.331Z,27.90
2018-09-18T11:11:28.262Z,28.10
2018-09-18T11:13:57.370Z,28.30
2018-09-18T11:16:26.409Z,28.40
2018-09-18T11:18:55.421Z,28.60
2018-09-18T11:21:24.352Z,28.90
2018-09-18T11:23:55.991Z,29.10
2018-09-18T11:26:25.501Z,29.20
2018-09-18T11:28:54.665Z,29.00
2018-09-18T11:31:23.560Z,28.90
2018-09-18T11:33:52.801Z,29.00
2018-09-18T11:36:21.729Z,29.10
2018-09-18T11:38:50.626Z,29.10
2018-09-18T11:41:19.673Z,29.20
2018-09-18T11:43:48.616Z,29.30
2018-09-18T11:46:17.569Z,29.20
2018-09-18T11:48:46.563Z,29.30
2018-09-18T11:51:15.461Z,29.30
2018-09-18T11:53:44.418Z,29.40
2018-09-18T11:56:13.361Z,29.60
2018-09-18T11:58:42.366Z,29.60
2018-09-18T12:01:11.526Z,29.60
2018-09-18T12:03:40.524Z,29.80
2018-09-18T12:06:09.494Z,29.80
2018-09-18T12:08:38.390Z,29.80
2018-09-18T12:11:07.437Z,29.80
2018-09-18T12:13:36.456Z,30.00
2018-09-18T12:16:05.453Z,29.80
2018-09-18T12:18:34.454Z,30.00
2018-09-18T12:21:03.448Z,30.20
2018-09-18T12:23:32.453Z,30.30
2018-09-18T12:26:01.364Z,30.30
2018-09-18T12:28:30.350Z,30.30
2018-09-18T12:30:59.652Z,30.50
2018-09-18T12:33:29.256Z,30.40
2018-09-18T12:35:58.173Z,30.50
2018-09-18T12:38:27.081Z,30.40
2018-09-18T12:40:56.045Z,30.50
2018-09-18T12:43:25.018Z,30.80
2018-09-18T12:45:53.908Z,30.80
2018-09-18T12:48:22.959Z,30.80
2018-09-18T12:50:52.269Z,31.00
2018-09-18T12:53:21.317Z,31.10
2018-09-18T12:55:50.189Z,31.20
2018-09-18T12:58:19.105Z,31.20
2018-09-18T13:00:48.058Z,30.90
2018-09-18T13:03:16.981Z,30.90
2018-09-18T13:05:45.972Z,30.60
2018-09-18T13:08:14.994Z,30.90
2018-09-18T13:10:43.844Z,31.10
2018-09-18T13:13:12.805Z,31.40
2018-09-18T13:15:42.339Z,31.40
2018-09-18T13:18:11.423Z,31.40
2018-09-18T13:20:41.796Z,31.60
2018-09-18T13:23:11.525Z,31.80
2018-09-18T13:25:40.578Z,32.00
2018-09-18T13:28:09.529Z,31.50
2018-09-18T13:30:38.480Z,31.30
2018-09-18T13:33:07.765Z,31.20
2018-09-18T13:35:36.681Z,31.50
2018-09-18T13:38:07.828Z,31.70
2018-09-18T13:40:36.741Z,31.80
2018-09-18T13:43:07.683Z,31.80
2018-09-18T13:45:36.813Z,31.70
2018-09-18T13:48:07.588Z,31.30
2018-09-18T13:50:36.591Z,30.90
2018-09-18T13:53:07.861Z,30.60
2018-09-18T13:55:37.073Z,30.40
2018-09-18T13:58:07.450Z,30.30
2018-09-18T14:00:36.455Z,30.10
2018-09-18T14:03:07.793Z,29.50
2018-09-18T14:05:36.755Z,29.10
2018-09-18T14:08:07.636Z,29.20
2018-09-18T14:10:36.648Z,29.30
2018-09-18T14:13:07.473Z,29.80
2018-09-18T14:15:36.505Z,30.50
2018-09-18T14:18:08.816Z,31.10
2018-09-18T14:20:37.758Z,31.70
2018-09-18T14:23:07.916Z,32.30
2018-09-18T14:25:37.961Z,33.20
2018-09-18T14:28:07.637Z,33.70
2018-09-18T14:30:36.560Z,34.10
2018-09-18T14:33:08.507Z,34.50
2018-09-18T14:35:37.525Z,33.80
2018-09-18T14:38:09.015Z,32.70
2018-09-18T14:40:38.138Z,32.60
2018-09-18T14:43:08.173Z,32.30
2018-09-18T14:45:37.106Z,31.70
2018-09-18T14:48:07.761Z,32.50
2018-09-18T14:50:36.761Z,32.50
2018-09-18T14:53:07.515Z,31.70
2018-09-18T14:55:36.415Z,30.90
2018-09-18T14:58:07.957Z,30.20
2018-09-18T15:00:36.926Z,29.70
2018-09-18T15:03:07.428Z,29.40
2018-09-18T15:05:36.417Z,29.10
2018-09-18T15:08:08.013Z,28.80
2018-09-18T15:10:36.996Z,28.50
2018-09-18T15:13:08.225Z,28.20
2018-09-18T15:15:37.257Z,28.00
2018-09-18T15:18:08.799Z,27.80
2018-09-18T15:20:37.704Z,27.80
2018-09-18T15:23:07.848Z,27.60
2018-09-18T15:25:36.972Z,27.40
2018-09-18T15:28:08.405Z,27.10
2018-09-18T15:30:37.268Z,27.00
2018-09-18T15:33:07.648Z,26.80
2018-09-18T15:35:36.598Z,26.70
2018-09-18T15:38:07.984Z,26.60
2018-09-18T15:40:37.002Z,26.50
2018-09-18T15:43:07.560Z,26.40
2018-09-18T15:45:36.593Z,26.30
2018-09-18T15:48:05.442Z,26.20
2018-09-18T15:50:34.372Z,26.20
2018-09-18T15:53:03.278Z,26.10
2018-09-18T15:55:32.237Z,26.10
2018-09-18T15:58:01.138Z,26.00
2018-09-18T16:00:30.077Z,26.00
2018-09-18T16:02:59.036Z,25.80
2018-09-18T16:05:27.945Z,25.70
2018-09-18T16:07:56.831Z,25.60
2018-09-18T16:10:25.782Z,25.50
2018-09-18T16:12:54.661Z,25.40
2018-09-18T16:15:23.633Z,25.30
2018-09-18T16:17:52.564Z,25.10
2018-09-18T16:20:21.482Z,25.00
2018-09-18T16:22:50.553Z,24.90
2018-09-18T16:25:19.375Z,24.70
2018-09-18T16:27:48.313Z,24.40
2018-09-18T16:30:17.222Z,24.30
2018-09-18T16:32:46.138Z,24.20
2018-09-18T16:35:15.056Z,24.10
2018-09-18T16:37:43.968Z,24.00
2018-09-18T16:40:12.883Z,24.00
2018-09-18T16:42:41.849Z,23.80
2018-09-18T16:45:10.806Z,23.70
2018-09-18T16:47:39.808Z,23.60
2018-09-18T16:50:08.765Z,23.60
2018-09-18T16:52:37.721Z,23.60
2018-09-18T16:55:06.801Z,23.50
2018-09-18T16:57:35.624Z,23.50
2018-09-18T17:00:04.789Z,23.40
2018-09-18T17:02:33.720Z,23.30
2018-09-18T17:05:03.215Z,23.20
2018-09-18T17:07:32.592Z,23.10
2018-09-18T17:10:01.502Z,23.10
2018-09-18T17:12:30.510Z,23.10
2018-09-18T17:14:59.498Z,23.10
2018-09-18T17:17:28.464Z,23.00
2018-09-18T17:19:57.497Z,23.00
2018-09-18T17:22:28.924Z,22.90
2018-09-18T17:24:58.058Z,22.80
2018-09-18T17:27:27.110Z,22.80
2018-09-18T17:29:56.018Z,22.70
2018-09-18T17:32:25.077Z,22.60
2018-09-18T17:34:54.083Z,22.60
2018-09-18T17:37:23.061Z,22.50
2018-09-18T17:39:52.192Z,22.50
2018-09-18T17:42:22.566Z,22.40
2018-09-18T17:44:51.529Z,22.40
2018-09-18T17:47:20.538Z,22.40
2018-09-18T17:49:49.509Z,22.20
2018-09-18T17:52:18.491Z,22.00
2018-09-18T17:54:47.515Z,21.90
2018-09-18T17:57:16.506Z,21.80
2018-09-18T17:59:45.868Z,21.80
2018-09-18T18:02:15.040Z,21.70
2018-09-18T18:04:44.104Z,21.70
2018-09-18T18:07:13.059Z,21.70
2018-09-18T18:09:42.677Z,21.50
2018-09-18T18:12:11.778Z,21.40
2018-09-18T18:14:40.807Z,21.30
2018-09-18T18:17:09.777Z,21.30
2018-09-18T18:19:38.725Z,21.20
2018-09-18T18:22:07.957Z,21.10
2018-09-18T18:24:36.906Z,21.00
2018-09-18T18:27:06.629Z,20.90
2018-09-18T18:29:36.339Z,20.90
2018-09-18T18:32:05.398Z,20.80
2018-09-18T18:34:35.384Z,20.80
2018-09-18T18:37:04.388Z,20.80
2018-09-18T18:39:33.537Z,20.70
2018-09-18T18:42:02.640Z,20.60
2018-09-18T18:44:31.673Z,20.60
2018-09-18T18:47:00.725Z,20.60
2018-09-18T18:49:33.835Z,20.60
2018-09-18T18:52:02.838Z,20.40
2018-09-18T18:54:31.761Z,20.40
2018-09-18T18:57:01.356Z,20.30
2018-09-18T18:59:30.361Z,20.30
2018-09-18T19:01:59.264Z,20.20
2018-09-18T19:04:28.758Z,20.20
2018-09-18T19:06:57.758Z,20.10
2018-09-18T19:09:26.699Z,20.00
2018-09-18T19:11:55.649Z,20.00
2018-09-18T19:14:24.655Z,20.00
2018-09-18T19:16:53.568Z,20.00
2018-09-18T19:19:22.555Z,19.90
2018-09-18T19:21:51.533Z,19.80
2018-09-18T19:24:20.883Z,19.80
2018-09-18T19:26:49.800Z,19.70
2018-09-18T19:29:18.819Z,19.70
2018-09-18T19:31:47.709Z,19.60
2018-09-18T19:34:16.629Z,19.50
2018-09-18T19:36:45.561Z,19.50
2018-09-18T19:39:14.861Z,19.50
2018-09-18T19:41:43.728Z,19.80
2018-09-18T19:44:12.648Z,20.10
2018-09-18T19:46:42.552Z,20.10
2018-09-18T19:49:11.417Z,20.00
2018-09-18T19:51:40.332Z,19.90
2018-09-18T19:54:09.230Z,19.70
2018-09-18T19:56:38.168Z,19.60
2018-09-18T19:59:07.095Z,19.40
2018-09-18T20:01:36.156Z,19.40
2018-09-18T20:04:05.025Z,19.20
2018-09-18T20:06:34.019Z,19.20
2018-09-18T20:09:03.282Z,19.10
2018-09-18T20:11:32.227Z,19.00
2018-09-18T20:14:01.134Z,18.90
2018-09-18T20:16:30.076Z,18.80
2018-09-18T20:18:59.358Z,18.80
2018-09-18T20:21:28.264Z,18.70
2018-09-18T20:23:57.492Z,18.70
2018-09-18T20:26:27.008Z,18.60
2018-09-18T20:28:55.912Z,18.60
2018-09-18T20:31:24.890Z,18.50
2018-09-18T20:33:53.783Z,18.50
2018-09-18T20:36:22.896Z,18.50
2018-09-18T20:38:51.765Z,18.40
2018-09-18T20:41:20.753Z,18.40
2018-09-18T20:43:50.058Z,18.40
2018-09-18T20:46:18.964Z,18.40
2018-09-18T20:48:47.928Z,18.30
2018-09-18T20:51:16.909Z,18.20
2018-09-18T20:53:46.170Z,18.20
2018-09-18T20:56:15.065Z,18.10
2018-09-18T20:58:43.987Z,18.10
2018-09-18T21:01:12.836Z,18.10
2018-09-18T21:03:42.603Z,18.00
2018-09-18T21:06:11.613Z,17.90
2018-09-18T21:08:40.495Z,17.80
2018-09-18T21:11:09.424Z,17.80
2018-09-18T21:13:38.272Z,17.80
2018-09-18T21:16:07.512Z,17.80
2018-09-18T21:18:36.721Z,17.80
2018-09-18T21:21:05.796Z,17.90
2018-09-18T21:23:34.725Z,17.80
2018-09-18T21:26:07.946Z,17.80
2018-09-18T21:28:37.926Z,17.80
2018-09-18T21:31:07.575Z,17.70
2018-09-18T21:33:36.567Z,17.70
2018-09-18T21:36:05.508Z,17.70
2018-09-18T21:38:34.369Z,17.60
2018-09-18T21:41:03.382Z,17.60
2018-09-18T21:43:32.743Z,17.60
2018-09-18T21:46:01.647Z,17.50
2018-09-18T21:48:30.755Z,17.50
2018-09-18T21:50:59.671Z,17.40
2018-09-18T21:53:28.624Z,17.40
2018-09-18T21:55:57.591Z,17.40
2018-09-18T21:58:26.432Z,17.40
2018-09-18T22:00:55.348Z,17.40
2018-09-18T22:03:24.181Z,17.40
2018-09-18T22:05:53.169Z,17.40
2018-09-18T22:08:22.084Z,17.30
2018-09-18T22:10:50.956Z,17.30
2018-09-18T22:13:19.824Z,17.30
2018-09-18T22:15:48.715Z,17.30
2018-09-18T22:18:17.652Z,17.20
2018-09-18T22:20:46.506Z,17.20
2018-09-18T22:23:15.445Z,17.20
2018-09-18T22:25:44.302Z,17.10
2018-09-18T22:28:13.192Z,17.10
2018-09-18T22:30:42.060Z,17.10
2018-09-18T22:33:10.960Z,17.00
2018-09-18T22:35:39.848Z,16.90
2018-09-18T22:38:08.716Z,16.80
2018-09-18T22:40:37.710Z,16.80
2018-09-18T22:43:06.656Z,16.70
2018-09-18T22:45:35.523Z,16.70
2018-09-18T22:48:04.433Z,16.70
2018-09-18T22:50:33.417Z,16.70
2018-09-18T22:53:02.282Z,16.70
2018-09-18T22:55:31.247Z,16.60
2018-09-18T22:58:00.139Z,16.60
2018-09-18T23:00:29.039Z,16.60
2018-09-18T23:02:57.900Z,16.60
2018-09-18T23:05:26.832Z,16.60
2018-09-18T23:07:55.655Z,16.60
2018-09-18T23:10:24.551Z,16.50
2018-09-18T23:12:53.549Z,16.40
2018-09-18T23:15:22.454Z,16.40
2018-09-18T23:17:51.337Z,16.40
2018-09-18T23:20:20.257Z,16.30
2018-09-18T23:22:49.135Z,16.30
2018-09-18T23:25:18.054Z,16.30
2018-09-18T23:27:47.028Z,16.30
2018-09-18T23:30:15.917Z,16.20
2018-09-18T23:32:44.836Z,16.20
2018-09-18T23:35:13.716Z,16.20
2018-09-18T23:37:42.612Z,16.20
2018-09-18T23:40:11.460Z,16.20
2018-09-18T23:42:40.390Z,16.20
2018-09-18T23:45:09.243Z,16.10
2018-09-18T23:47:38.177Z,16.10
2018-09-18T23:50:07.049Z,16.10
2018-09-18T23:52:35.936Z,16.00
2018-09-18T23:55:04.952Z,16.00
2018-09-18T23:57:33.856Z,16.00
